sensor_id;sensor_type;location;lat;lon;timestamp;P1;durP1;ratioP1;P2;durP2;ratioP2
24559;SDS011;12727;49.934;8.656;2022-08-04T00:02:32;4.72;;;2.70;;
24559;SDS011;12727;49.934;8.656;2022-08-04T00:08:00;3.67;;;2.50;;
24559;SDS011;12727;49.934;8.656;2022-08-04T00:10:28;3.03;;;2.35;;
24559;SDS011;12727;49.934;8.656;2022-08-04T00:12:58;3.30;;;2.58;;
24559;SDS011;12727;49.934;8.656;2022-08-04T00:15:26;3.42;;;2.58;;
24559;SDS011;12727;49.934;8.656;2022-08-04T00:17:54;6.90;;;3.47;;
24559;SDS011;12727;49.934;8.656;2022-08-04T00:20:28;6.20;;;2.58;;
24559;SDS011;12727;49.934;8.656;2022-08-04T00:22:55;6.35;;;2.70;;
24559;SDS011;12727;49.934;8.656;2022-08-04T00:25:22;4.88;;;2.78;;
24559;SDS011;12727;49.934;8.656;2022-08-04T00:27:49;4.65;;;2.90;;
24559;SDS011;12727;49.934;8.656;2022-08-04T00:30:15;3.78;;;3.00;;
24559;SDS011;12727;49.934;8.656;2022-08-04T00:32:41;4.78;;;2.95;;
24559;SDS011;12727;49.934;8.656;2022-08-04T00:35:12;4.35;;;2.70;;
24559;SDS011;12727;49.934;8.656;2022-08-04T00:37:39;5.65;;;3.38;;
24559;SDS011;12727;49.934;8.656;2022-08-04T00:40:12;5.75;;;2.90;;
24559;SDS011;12727;49.934;8.656;2022-08-04T00:43:11;3.83;;;2.75;;
24559;SDS011;12727;49.934;8.656;2022-08-04T00:48:51;4.93;;;3.10;;
24559;SDS011;12727;49.934;8.656;2022-08-04T00:54:10;4.32;;;2.72;;
24559;SDS011;12727;49.934;8.656;2022-08-04T00:59:33;5.68;;;2.85;;
24559;SDS011;12727;49.934;8.656;2022-08-04T01:02:16;3.30;;;3.00;;
24559;SDS011;12727;49.934;8.656;2022-08-04T01:05:20;3.00;;;2.70;;
24559;SDS011;12727;49.934;8.656;2022-08-04T01:16:32;4.00;;;3.05;;
24559;SDS011;12727;49.934;8.656;2022-08-04T01:19:15;2.95;;;2.63;;
24559;SDS011;12727;49.934;8.656;2022-08-04T01:24:29;4.10;;;2.95;;
24559;SDS011;12727;49.934;8.656;2022-08-04T01:30:18;3.50;;;2.75;;
24559;SDS011;12727;49.934;8.656;2022-08-04T01:32:47;3.70;;;2.70;;
24559;SDS011;12727;49.934;8.656;2022-08-04T01:35:19;4.90;;;3.05;;
24559;SDS011;12727;49.934;8.656;2022-08-04T01:40:42;4.85;;;3.05;;
24559;SDS011;12727;49.934;8.656;2022-08-04T01:43:09;3.85;;;2.85;;
24559;SDS011;12727;49.934;8.656;2022-08-04T01:45:37;4.05;;;3.33;;
24559;SDS011;12727;49.934;8.656;2022-08-04T01:48:04;6.05;;;3.10;;
24559;SDS011;12727;49.934;8.656;2022-08-04T01:50:35;3.53;;;3.22;;
24559;SDS011;12727;49.934;8.656;2022-08-04T01:53:01;5.90;;;3.10;;
24559;SDS011;12727;49.934;8.656;2022-08-04T01:55:27;4.13;;;3.33;;
24559;SDS011;12727;49.934;8.656;2022-08-04T01:57:54;3.50;;;3.03;;
24559;SDS011;12727;49.934;8.656;2022-08-04T02:00:24;4.50;;;3.35;;
24559;SDS011;12727;49.934;8.656;2022-08-04T02:02:51;6.50;;;3.50;;
24559;SDS011;12727;49.934;8.656;2022-08-04T02:05:19;5.05;;;3.35;;
24559;SDS011;12727;49.934;8.656;2022-08-04T02:07:49;4.95;;;3.05;;
24559;SDS011;12727;49.934;8.656;2022-08-04T02:10:35;3.83;;;3.10;;
24559;SDS011;12727;49.934;8.656;2022-08-04T02:13:17;3.63;;;3.22;;
24559;SDS011;12727;49.934;8.656;2022-08-04T02:18:39;3.33;;;3.00;;
24559;SDS011;12727;49.934;8.656;2022-08-04T02:21:10;3.72;;;3.25;;
24559;SDS011;12727;49.934;8.656;2022-08-04T02:23:39;5.68;;;3.47;;
24559;SDS011;12727;49.934;8.656;2022-08-04T02:26:10;4.72;;;3.60;;
24559;SDS011;12727;49.934;8.656;2022-08-04T02:28:47;3.17;;;2.90;;
24559;SDS011;12727;49.934;8.656;2022-08-04T02:36:38;3.60;;;3.30;;
24559;SDS011;12727;49.934;8.656;2022-08-04T02:39:06;5.32;;;3.40;;
24559;SDS011;12727;49.934;8.656;2022-08-04T02:41:33;7.65;;;3.40;;
24559;SDS011;12727;49.934;8.656;2022-08-04T02:44:03;5.03;;;3.60;;
24559;SDS011;12727;49.934;8.656;2022-08-04T02:46:31;3.92;;;3.50;;
24559;SDS011;12727;49.934;8.656;2022-08-04T02:48:58;4.50;;;4.00;;
24559;SDS011;12727;49.934;8.656;2022-08-04T02:51:29;5.13;;;3.92;;
24559;SDS011;12727;49.934;8.656;2022-08-04T02:53:57;4.93;;;4.28;;
24559;SDS011;12727;49.934;8.656;2022-08-04T02:56:25;5.82;;;4.10;;
24559;SDS011;12727;49.934;8.656;2022-08-04T02:59:07;6.05;;;3.42;;
24559;SDS011;12727;49.934;8.656;2022-08-04T03:01:34;5.30;;;3.65;;
24559;SDS011;12727;49.934;8.656;2022-08-04T03:04:05;4.13;;;3.72;;
24559;SDS011;12727;49.934;8.656;2022-08-04T03:21:00;5.25;;;4.00;;
24559;SDS011;12727;49.934;8.656;2022-08-04T03:39:51;5.70;;;4.55;;
24559;SDS011;12727;49.934;8.656;2022-08-04T03:48:39;5.70;;;3.92;;
24559;SDS011;12727;49.934;8.656;2022-08-04T03:51:42;5.28;;;4.68;;
24559;SDS011;12727;49.934;8.656;2022-08-04T03:55:50;7.80;;;4.13;;
24559;SDS011;12727;49.934;8.656;2022-08-04T03:58:38;5.80;;;4.60;;
24559;SDS011;12727;49.934;8.656;2022-08-04T04:01:01;6.13;;;4.55;;
24559;SDS011;12727;49.934;8.656;2022-08-04T04:11:50;8.25;;;4.95;;
24559;SDS011;12727;49.934;8.656;2022-08-04T04:14:47;6.88;;;4.32;;
24559;SDS011;12727;49.934;8.656;2022-08-04T04:23:02;8.23;;;5.30;;
24559;SDS011;12727;49.934;8.656;2022-08-04T04:39:19;7.63;;;5.57;;
24559;SDS011;12727;49.934;8.656;2022-08-04T04:47:31;9.13;;;5.28;;
24559;SDS011;12727;49.934;8.656;2022-08-04T04:56:05;8.77;;;5.28;;
24559;SDS011;12727;49.934;8.656;2022-08-04T04:58:38;6.30;;;5.30;;
24559;SDS011;12727;49.934;8.656;2022-08-04T05:01:15;8.52;;;4.88;;
24559;SDS011;12727;49.934;8.656;2022-08-04T05:12:13;7.80;;;4.82;;
24559;SDS011;12727;49.934;8.656;2022-08-04T05:14:54;8.98;;;5.25;;
24559;SDS011;12727;49.934;8.656;2022-08-04T05:17:29;6.30;;;5.25;;
24559;SDS011;12727;49.934;8.656;2022-08-04T05:20:07;7.72;;;4.63;;
24559;SDS011;12727;49.934;8.656;2022-08-04T05:22:47;7.43;;;5.18;;
24559;SDS011;12727;49.934;8.656;2022-08-04T05:25:44;5.63;;;4.90;;
24559;SDS011;12727;49.934;8.656;2022-08-04T05:28:19;5.43;;;4.88;;
24559;SDS011;12727;49.934;8.656;2022-08-04T05:30:51;5.20;;;4.70;;
24559;SDS011;12727;49.934;8.656;2022-08-04T05:33:24;4.97;;;4.30;;
24559;SDS011;12727;49.934;8.656;2022-08-04T05:35:52;5.10;;;4.07;;
24559;SDS011;12727;49.934;8.656;2022-08-04T05:38:22;5.85;;;4.20;;
24559;SDS011;12727;49.934;8.656;2022-08-04T05:40:55;6.93;;;4.47;;
24559;SDS011;12727;49.934;8.656;2022-08-04T05:43:21;6.82;;;4.22;;
24559;SDS011;12727;49.934;8.656;2022-08-04T05:45:48;5.78;;;4.90;;
24559;SDS011;12727;49.934;8.656;2022-08-04T05:48:15;9.65;;;4.50;;
24559;SDS011;12727;49.934;8.656;2022-08-04T05:50:42;5.40;;;4.40;;
24559;SDS011;12727;49.934;8.656;2022-08-04T05:53:10;6.90;;;4.30;;
24559;SDS011;12727;49.934;8.656;2022-08-04T05:55:37;6.03;;;4.68;;
24559;SDS011;12727;49.934;8.656;2022-08-04T05:58:02;11.60;;;4.85;;
24559;SDS011;12727;49.934;8.656;2022-08-04T06:00:29;7.10;;;4.60;;
24559;SDS011;12727;49.934;8.656;2022-08-04T06:02:55;6.78;;;4.65;;
24559;SDS011;12727;49.934;8.656;2022-08-04T06:05:22;8.65;;;4.45;;
24559;SDS011;12727;49.934;8.656;2022-08-04T06:07:52;16.70;;;4.75;;
24559;SDS011;12727;49.934;8.656;2022-08-04T06:10:18;10.43;;;4.18;;
24559;SDS011;12727;49.934;8.656;2022-08-04T06:12:45;13.23;;;4.00;;
24559;SDS011;12727;49.934;8.656;2022-08-04T06:15:16;9.38;;;3.95;;
24559;SDS011;12727;49.934;8.656;2022-08-04T06:17:45;4.90;;;3.92;;
24559;SDS011;12727;49.934;8.656;2022-08-04T06:20:14;8.52;;;3.78;;
24559;SDS011;12727;49.934;8.656;2022-08-04T06:22:43;5.30;;;3.80;;
24559;SDS011;12727;49.934;8.656;2022-08-04T06:25:13;10.30;;;3.90;;
24559;SDS011;12727;49.934;8.656;2022-08-04T06:27:44;5.55;;;3.58;;
24559;SDS011;12727;49.934;8.656;2022-08-04T06:30:11;8.10;;;3.53;;
24559;SDS011;12727;49.934;8.656;2022-08-04T06:32:43;8.27;;;3.65;;
24559;SDS011;12727;49.934;8.656;2022-08-04T06:35:19;5.43;;;3.53;;
24559;SDS011;12727;49.934;8.656;2022-08-04T06:37:46;6.45;;;3.40;;
24559;SDS011;12727;49.934;8.656;2022-08-04T06:40:14;7.05;;;3.80;;
24559;SDS011;12727;49.934;8.656;2022-08-04T06:42:41;6.22;;;3.17;;
24559;SDS011;12727;49.934;8.656;2022-08-04T06:45:09;6.43;;;2.95;;
24559;SDS011;12727;49.934;8.656;2022-08-04T06:47:36;6.22;;;3.10;;
24559;SDS011;12727;49.934;8.656;2022-08-04T06:50:04;4.47;;;3.20;;
24559;SDS011;12727;49.934;8.656;2022-08-04T06:52:31;5.75;;;3.45;;
24559;SDS011;12727;49.934;8.656;2022-08-04T06:54:57;8.23;;;3.25;;
24559;SDS011;12727;49.934;8.656;2022-08-04T06:57:25;8.13;;;3.60;;
24559;SDS011;12727;49.934;8.656;2022-08-04T06:59:53;6.78;;;3.40;;
24559;SDS011;12727;49.934;8.656;2022-08-04T07:02:25;7.90;;;3.23;;
24559;SDS011;12727;49.934;8.656;2022-08-04T07:04:53;6.55;;;3.13;;
24559;SDS011;12727;49.934;8.656;2022-08-04T07:07:19;6.03;;;2.83;;
24559;SDS011;12727;49.934;8.656;2022-08-04T07:09:44;6.97;;;2.80;;
24559;SDS011;12727;49.934;8.656;2022-08-04T07:12:10;11.00;;;3.38;;
24559;SDS011;12727;49.934;8.656;2022-08-04T07:14:38;6.65;;;2.70;;
24559;SDS011;12727;49.934;8.656;2022-08-04T07:17:05;8.30;;;3.08;;
24559;SDS011;12727;49.934;8.656;2022-08-04T07:19:33;7.32;;;2.90;;
24559;SDS011;12727;49.934;8.656;2022-08-04T07:22:00;8.00;;;3.03;;
24559;SDS011;12727;49.934;8.656;2022-08-04T07:24:34;5.05;;;2.78;;
24559;SDS011;12727;49.934;8.656;2022-08-04T07:27:00;13.35;;;3.00;;
24559;SDS011;12727;49.934;8.656;2022-08-04T07:29:27;36.83;;;4.97;;
24559;SDS011;12727;49.934;8.656;2022-08-04T07:31:56;8.15;;;2.80;;
24559;SDS011;12727;49.934;8.656;2022-08-04T07:34:24;7.63;;;2.63;;
24559;SDS011;12727;49.934;8.656;2022-08-04T07:36:53;6.88;;;2.65;;
24559;SDS011;12727;49.934;8.656;2022-08-04T07:39:20;3.65;;;1.92;;
24559;SDS011;12727;49.934;8.656;2022-08-04T07:41:48;6.78;;;2.50;;
24559;SDS011;12727;49.934;8.656;2022-08-04T07:44:15;2.47;;;2.28;;
24559;SDS011;12727;49.934;8.656;2022-08-04T07:46:41;5.97;;;2.70;;
24559;SDS011;12727;49.934;8.656;2022-08-04T07:49:09;4.43;;;2.40;;
24559;SDS011;12727;49.934;8.656;2022-08-04T07:51:37;12.52;;;3.35;;
24559;SDS011;12727;49.934;8.656;2022-08-04T07:54:04;5.28;;;2.40;;
24559;SDS011;12727;49.934;8.656;2022-08-04T07:56:32;8.25;;;3.08;;
24559;SDS011;12727;49.934;8.656;2022-08-04T07:59:00;4.28;;;2.67;;
24559;SDS011;12727;49.934;8.656;2022-08-04T08:01:26;5.30;;;2.60;;
24559;SDS011;12727;49.934;8.656;2022-08-04T08:03:55;5.20;;;2.67;;
24559;SDS011;12727;49.934;8.656;2022-08-04T08:06:24;3.57;;;2.37;;
24559;SDS011;12727;49.934;8.656;2022-08-04T08:08:50;6.28;;;2.90;;
24559;SDS011;12727;49.934;8.656;2022-08-04T08:11:17;8.40;;;2.72;;
24559;SDS011;12727;49.934;8.656;2022-08-04T08:13:43;4.47;;;3.10;;
24559;SDS011;12727;49.934;8.656;2022-08-04T08:16:09;5.90;;;2.58;;
24559;SDS011;12727;49.934;8.656;2022-08-04T08:18:38;6.38;;;2.60;;
24559;SDS011;12727;49.934;8.656;2022-08-04T08:21:04;12.48;;;2.83;;
24559;SDS011;12727;49.934;8.656;2022-08-04T08:23:31;5.35;;;2.83;;
24559;SDS011;12727;49.934;8.656;2022-08-04T08:25:59;4.05;;;2.75;;
24559;SDS011;12727;49.934;8.656;2022-08-04T08:28:25;5.47;;;3.20;;
24559;SDS011;12727;49.934;8.656;2022-08-04T08:30:51;7.78;;;3.10;;
24559;SDS011;12727;49.934;8.656;2022-08-04T08:33:16;8.05;;;3.40;;
24559;SDS011;12727;49.934;8.656;2022-08-04T08:35:47;4.03;;;2.65;;
24559;SDS011;12727;49.934;8.656;2022-08-04T08:38:14;6.53;;;2.97;;
24559;SDS011;12727;49.934;8.656;2022-08-04T08:40:52;4.30;;;3.08;;
24559;SDS011;12727;49.934;8.656;2022-08-04T08:43:35;7.57;;;3.03;;
24559;SDS011;12727;49.934;8.656;2022-08-04T08:51:58;5.65;;;3.22;;
24559;SDS011;12727;49.934;8.656;2022-08-04T09:00:41;4.80;;;2.90;;
24559;SDS011;12727;49.934;8.656;2022-08-04T09:06:37;3.83;;;2.45;;
24559;SDS011;12727;49.934;8.656;2022-08-04T09:09:16;3.63;;;2.53;;
24559;SDS011;12727;49.934;8.656;2022-08-04T09:14:48;4.97;;;2.58;;
24559;SDS011;12727;49.934;8.656;2022-08-04T09:20:30;5.95;;;3.00;;
24559;SDS011;12727;49.934;8.656;2022-08-04T09:23:12;6.03;;;2.63;;
24559;SDS011;12727;49.934;8.656;2022-08-04T09:25:41;4.68;;;2.60;;
24559;SDS011;12727;49.934;8.656;2022-08-04T09:28:18;3.28;;;2.20;;
24559;SDS011;12727;49.934;8.656;2022-08-04T09:31:01;3.17;;;2.47;;
24559;SDS011;12727;49.934;8.656;2022-08-04T09:36:06;2.35;;;2.15;;
24559;SDS011;12727;49.934;8.656;2022-08-04T09:41:40;7.40;;;2.53;;
24559;SDS011;12727;49.934;8.656;2022-08-04T09:52:51;6.28;;;2.20;;
24559;SDS011;12727;49.934;8.656;2022-08-04T09:55:37;4.25;;;2.50;;
24559;SDS011;12727;49.934;8.656;2022-08-04T10:01:17;4.97;;;2.13;;
24559;SDS011;12727;49.934;8.656;2022-08-04T10:03:49;6.38;;;2.38;;
24559;SDS011;12727;49.934;8.656;2022-08-04T10:09:49;6.70;;;2.55;;
24559;SDS011;12727;49.934;8.656;2022-08-04T10:12:37;2.90;;;2.30;;
24559;SDS011;12727;49.934;8.656;2022-08-04T10:26:35;2.95;;;2.10;;
24559;SDS011;12727;49.934;8.656;2022-08-04T10:31:56;3.78;;;2.22;;
24559;SDS011;12727;49.934;8.656;2022-08-04T10:34:42;3.92;;;2.17;;
24559;SDS011;12727;49.934;8.656;2022-08-04T10:37:25;3.40;;;1.92;;
24559;SDS011;12727;49.934;8.656;2022-08-04T10:39:55;2.47;;;1.80;;
24559;SDS011;12727;49.934;8.656;2022-08-04T10:42:53;5.32;;;2.25;;
24559;SDS011;12727;49.934;8.656;2022-08-04T10:45:26;9.88;;;2.25;;
24559;SDS011;12727;49.934;8.656;2022-08-04T10:48:08;24.20;;;4.07;;
24559;SDS011;12727;49.934;8.656;2022-08-04T10:50:41;2.90;;;1.50;;
24559;SDS011;12727;49.934;8.656;2022-08-04T10:53:17;4.85;;;1.90;;
24559;SDS011;12727;49.934;8.656;2022-08-04T10:58:20;4.18;;;1.70;;
24559;SDS011;12727;49.934;8.656;2022-08-04T11:00:53;5.32;;;1.70;;
24559;SDS011;12727;49.934;8.656;2022-08-04T11:06:08;2.35;;;1.60;;
24559;SDS011;12727;49.934;8.656;2022-08-04T11:08:35;2.72;;;1.75;;
24559;SDS011;12727;49.934;8.656;2022-08-04T11:14:39;19.27;;;3.67;;
24559;SDS011;12727;49.934;8.656;2022-08-04T11:17:13;2.22;;;1.52;;
24559;SDS011;12727;49.934;8.656;2022-08-04T11:20:08;2.60;;;1.73;;
24559;SDS011;12727;49.934;8.656;2022-08-04T11:22:59;7.10;;;2.25;;
24559;SDS011;12727;49.934;8.656;2022-08-04T11:31:25;7.85;;;1.85;;
24559;SDS011;12727;49.934;8.656;2022-08-04T11:37:35;4.97;;;1.42;;
24559;SDS011;12727;49.934;8.656;2022-08-04T11:40:08;3.22;;;1.50;;
24559;SDS011;12727;49.934;8.656;2022-08-04T11:42:40;3.83;;;1.60;;
24559;SDS011;12727;49.934;8.656;2022-08-04T11:45:17;3.58;;;1.73;;
24559;SDS011;12727;49.934;8.656;2022-08-04T11:50:21;3.97;;;1.70;;
24559;SDS011;12727;49.934;8.656;2022-08-04T11:52:51;2.17;;;1.50;;
24559;SDS011;12727;49.934;8.656;2022-08-04T11:55:19;1.83;;;1.10;;
24559;SDS011;12727;49.934;8.656;2022-08-04T11:57:46;1.77;;;1.00;;
24559;SDS011;12727;49.934;8.656;2022-08-04T12:00:13;1.75;;;1.20;;
24559;SDS011;12727;49.934;8.656;2022-08-04T12:05:32;1.65;;;1.00;;
24559;SDS011;12727;49.934;8.656;2022-08-04T12:08:16;5.43;;;1.30;;
24559;SDS011;12727;49.934;8.656;2022-08-04T12:16:24;3.05;;;1.45;;
24559;SDS011;12727;49.934;8.656;2022-08-04T12:19:08;2.10;;;0.80;;
24559;SDS011;12727;49.934;8.656;2022-08-04T12:21:43;1.58;;;0.88;;
24559;SDS011;12727;49.934;8.656;2022-08-04T12:24:15;2.40;;;1.17;;
24559;SDS011;12727;49.934;8.656;2022-08-04T12:26:52;2.35;;;1.10;;
24559;SDS011;12727;49.934;8.656;2022-08-04T12:29:29;2.05;;;1.08;;
24559;SDS011;12727;49.934;8.656;2022-08-04T12:35:00;1.75;;;1.00;;
24559;SDS011;12727;49.934;8.656;2022-08-04T12:40:27;3.58;;;0.90;;
24559;SDS011;12727;49.934;8.656;2022-08-04T12:43:17;7.43;;;1.00;;
24559;SDS011;12727;49.934;8.656;2022-08-04T12:45:48;2.47;;;0.80;;
24559;SDS011;12727;49.934;8.656;2022-08-04T12:48:17;2.25;;;0.82;;
24559;SDS011;12727;49.934;8.656;2022-08-04T12:50:49;2.65;;;0.98;;
24559;SDS011;12727;49.934;8.656;2022-08-04T12:53:19;1.52;;;0.88;;
24559;SDS011;12727;49.934;8.656;2022-08-04T12:55:47;1.67;;;1.13;;
24559;SDS011;12727;49.934;8.656;2022-08-04T12:58:16;6.18;;;1.08;;
24559;SDS011;12727;49.934;8.656;2022-08-04T13:00:46;3.67;;;1.13;;
24559;SDS011;12727;49.934;8.656;2022-08-04T13:03:17;3.65;;;1.00;;
24559;SDS011;12727;49.934;8.656;2022-08-04T13:05:45;4.70;;;1.05;;
24559;SDS011;12727;49.934;8.656;2022-08-04T13:08:13;2.40;;;1.10;;
24559;SDS011;12727;49.934;8.656;2022-08-04T13:10:44;2.10;;;1.10;;
24559;SDS011;12727;49.934;8.656;2022-08-04T13:13:17;1.13;;;0.90;;
24559;SDS011;12727;49.934;8.656;2022-08-04T13:15:58;4.97;;;1.10;;
24559;SDS011;12727;49.934;8.656;2022-08-04T13:18:26;6.38;;;1.25;;
24559;SDS011;12727;49.934;8.656;2022-08-04T13:20:53;3.85;;;1.42;;
24559;SDS011;12727;49.934;8.656;2022-08-04T13:23:21;3.28;;;1.20;;
24559;SDS011;12727;49.934;8.656;2022-08-04T13:25:50;1.23;;;1.00;;
24559;SDS011;12727;49.934;8.656;2022-08-04T13:28:23;4.05;;;1.50;;
24559;SDS011;12727;49.934;8.656;2022-08-04T13:30:55;2.38;;;1.30;;
24559;SDS011;12727;49.934;8.656;2022-08-04T13:33:27;3.38;;;1.48;;
24559;SDS011;12727;49.934;8.656;2022-08-04T13:35:55;2.05;;;1.27;;
24559;SDS011;12727;49.934;8.656;2022-08-04T13:38:23;3.53;;;1.40;;
24559;SDS011;12727;49.934;8.656;2022-08-04T13:40:50;4.68;;;1.60;;
24559;SDS011;12727;49.934;8.656;2022-08-04T13:43:21;2.40;;;1.30;;
24559;SDS011;12727;49.934;8.656;2022-08-04T13:48:15;2.42;;;1.30;;
24559;SDS011;12727;49.934;8.656;2022-08-04T13:50:46;2.20;;;1.50;;
24559;SDS011;12727;49.934;8.656;2022-08-04T13:53:12;3.45;;;1.38;;
24559;SDS011;12727;49.934;8.656;2022-08-04T13:55:42;3.03;;;1.30;;
24559;SDS011;12727;49.934;8.656;2022-08-04T13:58:09;4.30;;;1.40;;
24559;SDS011;12727;49.934;8.656;2022-08-04T14:00:47;2.22;;;1.40;;
24559;SDS011;12727;49.934;8.656;2022-08-04T14:03:21;4.28;;;1.40;;
24559;SDS011;12727;49.934;8.656;2022-08-04T14:06:15;4.50;;;1.52;;
24559;SDS011;12727;49.934;8.656;2022-08-04T14:08:54;2.80;;;1.60;;
24559;SDS011;12727;49.934;8.656;2022-08-04T14:11:31;3.50;;;1.30;;
24559;SDS011;12727;49.934;8.656;2022-08-04T14:14:11;2.63;;;1.02;;
24559;SDS011;12727;49.934;8.656;2022-08-04T14:17:07;2.25;;;1.05;;
24559;SDS011;12727;49.934;8.656;2022-08-04T14:24:54;2.65;;;1.58;;
24559;SDS011;12727;49.934;8.656;2022-08-04T14:27:40;2.30;;;1.33;;
24559;SDS011;12727;49.934;8.656;2022-08-04T14:30:21;3.08;;;1.30;;
24559;SDS011;12727;49.934;8.656;2022-08-04T14:33:08;3.00;;;1.38;;
24559;SDS011;12727;49.934;8.656;2022-08-04T14:35:35;6.70;;;1.63;;
24559;SDS011;12727;49.934;8.656;2022-08-04T14:38:09;3.97;;;1.52;;
24559;SDS011;12727;49.934;8.656;2022-08-04T14:43:02;3.60;;;1.30;;
24559;SDS011;12727;49.934;8.656;2022-08-04T14:45:30;2.45;;;1.30;;
24559;SDS011;12727;49.934;8.656;2022-08-04T14:48:00;3.60;;;1.52;;
24559;SDS011;12727;49.934;8.656;2022-08-04T14:50:37;2.13;;;1.35;;
24559;SDS011;12727;49.934;8.656;2022-08-04T14:53:11;2.38;;;1.25;;
24559;SDS011;12727;49.934;8.656;2022-08-04T14:55:42;6.95;;;1.70;;
24559;SDS011;12727;49.934;8.656;2022-08-04T14:58:20;3.22;;;1.35;;
24559;SDS011;12727;49.934;8.656;2022-08-04T15:00:47;4.22;;;1.45;;
24559;SDS011;12727;49.934;8.656;2022-08-04T15:03:13;4.75;;;1.30;;
24559;SDS011;12727;49.934;8.656;2022-08-04T15:05:40;5.03;;;1.48;;
24559;SDS011;12727;49.934;8.656;2022-08-04T15:08:06;3.90;;;1.50;;
24559;SDS011;12727;49.934;8.656;2022-08-04T15:10:33;4.60;;;1.35;;
24559;SDS011;12727;49.934;8.656;2022-08-04T15:13:00;5.07;;;1.52;;
24559;SDS011;12727;49.934;8.656;2022-08-04T15:15:26;4.30;;;1.48;;
24559;SDS011;12727;49.934;8.656;2022-08-04T15:17:53;4.53;;;1.40;;
24559;SDS011;12727;49.934;8.656;2022-08-04T15:20:19;2.30;;;1.38;;
24559;SDS011;12727;49.934;8.656;2022-08-04T15:22:45;1.85;;;1.30;;
24559;SDS011;12727;49.934;8.656;2022-08-04T15:25:11;4.07;;;1.50;;
24559;SDS011;12727;49.934;8.656;2022-08-04T15:27:38;2.45;;;1.52;;
24559;SDS011;12727;49.934;8.656;2022-08-04T15:30:05;4.63;;;1.58;;
24559;SDS011;12727;49.934;8.656;2022-08-04T15:32:39;2.70;;;1.33;;
24559;SDS011;12727;49.934;8.656;2022-08-04T15:35:11;3.83;;;1.50;;
24559;SDS011;12727;49.934;8.656;2022-08-04T15:37:45;1.98;;;1.30;;
24559;SDS011;12727;49.934;8.656;2022-08-04T15:40:42;6.50;;;1.63;;
24559;SDS011;12727;49.934;8.656;2022-08-04T15:46:36;4.25;;;1.50;;
24559;SDS011;12727;49.934;8.656;2022-08-04T15:49:23;2.13;;;1.38;;
24559;SDS011;12727;49.934;8.656;2022-08-04T15:52:02;4.72;;;1.40;;
24559;SDS011;12727;49.934;8.656;2022-08-04T15:54:33;2.38;;;1.45;;
24559;SDS011;12727;49.934;8.656;2022-08-04T15:57:03;3.83;;;1.30;;
24559;SDS011;12727;49.934;8.656;2022-08-04T16:05:42;3.28;;;1.27;;
24559;SDS011;12727;49.934;8.656;2022-08-04T16:07:55;5.03;;;1.23;;
24559;SDS011;12727;49.934;8.656;2022-08-04T16:12:54;2.42;;;1.20;;
24559;SDS011;12727;49.934;8.656;2022-08-04T16:15:41;4.15;;;1.55;;
24559;SDS011;12727;49.934;8.656;2022-08-04T16:18:10;2.15;;;1.65;;
24559;SDS011;12727;49.934;8.656;2022-08-04T16:20:36;3.38;;;1.40;;
24559;SDS011;12727;49.934;8.656;2022-08-04T16:23:46;2.75;;;1.50;;
24559;SDS011;12727;49.934;8.656;2022-08-04T16:25:51;2.38;;;1.40;;
24559;SDS011;12727;49.934;8.656;2022-08-04T16:28:34;4.68;;;1.67;;
24559;SDS011;12727;49.934;8.656;2022-08-04T16:31:05;5.43;;;1.80;;
24559;SDS011;12727;49.934;8.656;2022-08-04T16:33:33;2.80;;;2.10;;
24559;SDS011;12727;49.934;8.656;2022-08-04T16:35:59;4.35;;;1.40;;
24559;SDS011;12727;49.934;8.656;2022-08-04T16:38:26;4.78;;;1.75;;
24559;SDS011;12727;49.934;8.656;2022-08-04T16:43:21;5.30;;;1.65;;
24559;SDS011;12727;49.934;8.656;2022-08-04T16:46:00;3.10;;;1.58;;
24559;SDS011;12727;49.934;8.656;2022-08-04T16:48:31;1.63;;;1.30;;
24559;SDS011;12727;49.934;8.656;2022-08-04T16:53:40;6.45;;;1.52;;
24559;SDS011;12727;49.934;8.656;2022-08-04T16:56:11;6.35;;;1.48;;
24559;SDS011;12727;49.934;8.656;2022-08-04T16:58:38;3.75;;;1.48;;
24559;SDS011;12727;49.934;8.656;2022-08-04T17:03:37;2.35;;;1.50;;
24559;SDS011;12727;49.934;8.656;2022-08-04T17:06:08;3.50;;;1.85;;
24559;SDS011;12727;49.934;8.656;2022-08-04T17:08:39;3.97;;;1.38;;
24559;SDS011;12727;49.934;8.656;2022-08-04T17:11:09;3.00;;;1.48;;
24559;SDS011;12727;49.934;8.656;2022-08-04T17:13:39;3.60;;;1.20;;
24559;SDS011;12727;49.934;8.656;2022-08-04T17:16:07;4.25;;;1.40;;
24559;SDS011;12727;49.934;8.656;2022-08-04T17:18:39;5.88;;;1.60;;
24559;SDS011;12727;49.934;8.656;2022-08-04T17:21:08;2.63;;;1.63;;
24559;SDS011;12727;49.934;8.656;2022-08-04T17:23:38;4.60;;;1.60;;
24559;SDS011;12727;49.934;8.656;2022-08-04T17:26:07;3.90;;;1.40;;
24559;SDS011;12727;49.934;8.656;2022-08-04T17:28:34;5.10;;;1.60;;
24559;SDS011;12727;49.934;8.656;2022-08-04T17:31:00;5.20;;;1.58;;
24559;SDS011;12727;49.934;8.656;2022-08-04T17:33:27;3.30;;;1.33;;
24559;SDS011;12727;49.934;8.656;2022-08-04T17:35:54;2.17;;;1.30;;
24559;SDS011;12727;49.934;8.656;2022-08-04T17:38:27;6.68;;;1.50;;
24559;SDS011;12727;49.934;8.656;2022-08-04T17:40:58;8.48;;;1.67;;
24559;SDS011;12727;49.934;8.656;2022-08-04T17:43:34;3.75;;;1.60;;
24559;SDS011;12727;49.934;8.656;2022-08-04T17:46:20;3.40;;;1.80;;
24559;SDS011;12727;49.934;8.656;2022-08-04T17:49:22;2.47;;;1.35;;
24559;SDS011;12727;49.934;8.656;2022-08-04T17:54:28;4.90;;;1.70;;
24559;SDS011;12727;49.934;8.656;2022-08-04T17:56:56;8.00;;;1.55;;
24559;SDS011;12727;49.934;8.656;2022-08-04T17:59:27;5.97;;;1.85;;
24559;SDS011;12727;49.934;8.656;2022-08-04T18:02:04;6.85;;;1.70;;
24559;SDS011;12727;49.934;8.656;2022-08-04T18:04:32;4.10;;;1.60;;
24559;SDS011;12727;49.934;8.656;2022-08-04T18:07:08;2.63;;;1.48;;
24559;SDS011;12727;49.934;8.656;2022-08-04T18:09:40;2.65;;;1.33;;
24559;SDS011;12727;49.934;8.656;2022-08-04T18:12:19;2.58;;;1.67;;
24559;SDS011;12727;49.934;8.656;2022-08-04T18:14:55;6.90;;;1.73;;
24559;SDS011;12727;49.934;8.656;2022-08-04T18:17:38;4.10;;;1.83;;
24559;SDS011;12727;49.934;8.656;2022-08-04T18:20:07;3.58;;;1.65;;
24559;SDS011;12727;49.934;8.656;2022-08-04T18:22:36;4.57;;;1.98;;
24559;SDS011;12727;49.934;8.656;2022-08-04T18:25:02;3.65;;;1.52;;
24559;SDS011;12727;49.934;8.656;2022-08-04T18:27:29;3.17;;;1.55;;
24559;SDS011;12727;49.934;8.656;2022-08-04T18:29:56;3.38;;;1.73;;
24559;SDS011;12727;49.934;8.656;2022-08-04T18:32:22;5.15;;;1.63;;
24559;SDS011;12727;49.934;8.656;2022-08-04T18:34:50;2.55;;;1.60;;
24559;SDS011;12727;49.934;8.656;2022-08-04T18:37:16;2.92;;;1.92;;
24559;SDS011;12727;49.934;8.656;2022-08-04T18:39:42;4.28;;;1.60;;
24559;SDS011;12727;49.934;8.656;2022-08-04T18:42:08;2.78;;;1.83;;
24559;SDS011;12727;49.934;8.656;2022-08-04T18:44:34;1.73;;;1.35;;
24559;SDS011;12727;49.934;8.656;2022-08-04T18:47:00;3.03;;;1.52;;
24559;SDS011;12727;49.934;8.656;2022-08-04T18:49:26;3.20;;;1.40;;
24559;SDS011;12727;49.934;8.656;2022-08-04T18:51:53;3.08;;;1.55;;
24559;SDS011;12727;49.934;8.656;2022-08-04T18:54:19;2.88;;;1.42;;
24559;SDS011;12727;49.934;8.656;2022-08-04T18:56:45;8.45;;;1.80;;
24559;SDS011;12727;49.934;8.656;2022-08-04T18:59:13;2.03;;;1.60;;
24559;SDS011;12727;49.934;8.656;2022-08-04T19:01:38;3.22;;;1.50;;
24559;SDS011;12727;49.934;8.656;2022-08-04T19:04:04;4.55;;;1.80;;
24559;SDS011;12727;49.934;8.656;2022-08-04T19:06:31;3.97;;;1.67;;
24559;SDS011;12727;49.934;8.656;2022-08-04T19:08:57;2.15;;;1.70;;
24559;SDS011;12727;49.934;8.656;2022-08-04T19:11:23;3.28;;;1.70;;
24559;SDS011;12727;49.934;8.656;2022-08-04T19:13:49;3.35;;;1.80;;
24559;SDS011;12727;49.934;8.656;2022-08-04T19:16:15;3.80;;;1.42;;
24559;SDS011;12727;49.934;8.656;2022-08-04T19:18:41;3.78;;;1.45;;
24559;SDS011;12727;49.934;8.656;2022-08-04T19:21:07;4.20;;;1.70;;
24559;SDS011;12727;49.934;8.656;2022-08-04T19:23:33;6.28;;;1.42;;